createdAt,value
2022-12-02T00:00:48.803Z,66.97
2022-12-02T00:03:19.611Z,66.29
2022-12-02T00:05:47.546Z,66.42
2022-12-02T00:08:16.690Z,66.88
2022-12-02T00:10:44.618Z,66.66
2022-12-02T00:13:12.685Z,66.54
2022-12-02T00:15:42.340Z,66.88
2022-12-02T00:18:09.845Z,67.12
2022-12-02T00:20:38.330Z,66.83
2022-12-02T00:23:05.361Z,66.92
2022-12-02T00:25:32.145Z,66.61
2022-12-02T00:27:58.764Z,66.48
2022-12-02T00:30:25.792Z,67.16
2022-12-02T00:32:52.881Z,66.89
2022-12-02T00:35:19.530Z,66.43
2022-12-02T00:37:47.991Z,67.00
2022-12-02T00:40:14.743Z,66.67
2022-12-02T00:42:41.658Z,67.21
2022-12-02T00:45:28.208Z,66.39
2022-12-02T00:47:54.738Z,66.75
2022-12-02T00:50:21.632Z,66.37
2022-12-02T00:52:49.481Z,66.61
2022-12-02T00:55:16.287Z,66.44
2022-12-02T00:57:42.818Z,67.27
2022-12-02T01:00:11.024Z,67.10
2022-12-02T01:02:38.271Z,66.95
2022-12-02T01:05:05.561Z,66.56
2022-12-02T01:07:32.145Z,66.75
2022-12-02T01:10:01.389Z,67.26
2022-12-02T01:12:28.093Z,66.58
2022-12-02T01:14:54.606Z,67.50
2022-12-02T01:17:21.116Z,66.83
2022-12-02T01:19:47.600Z,67.32
2022-12-02T01:22:14.248Z,67.26
2022-12-02T01:24:40.857Z,67.17
2022-12-02T01:27:09.171Z,67.52
2022-12-02T01:29:36.383Z,67.11
2022-12-02T01:32:03.108Z,67.24
2022-12-02T01:34:29.957Z,66.99
2022-12-02T01:36:56.543Z,66.47
2022-12-02T01:39:23.086Z,67.13
2022-12-02T01:41:50.857Z,66.93
2022-12-02T01:44:18.761Z,66.59
2022-12-02T01:46:45.851Z,66.78
2022-12-02T01:49:13.111Z,67.13
2022-12-02T01:51:39.664Z,67.04
2022-12-02T01:54:06.853Z,67.32
2022-12-02T01:56:33.592Z,67.26
2022-12-02T01:59:00.305Z,67.17
2022-12-02T02:01:29.067Z,67.07
2022-12-02T02:03:56.203Z,66.98
2022-12-02T02:06:23.405Z,66.71
2022-12-02T02:08:50.560Z,66.48
2022-12-02T02:11:17.247Z,67.38
2022-12-02T02:13:44.049Z,66.61
2022-12-02T02:16:10.662Z,66.95
2022-12-02T02:18:38.808Z,67.48
2022-12-02T02:21:07.017Z,66.59
2022-12-02T02:23:36.879Z,67.05
2022-12-02T02:26:04.111Z,67.33
2022-12-02T02:28:34.680Z,66.87
2022-12-02T02:31:02.636Z,66.69
2022-12-02T02:33:36.472Z,66.99
2022-12-02T02:36:03.677Z,67.06
2022-12-02T02:38:31.407Z,67.22
2022-12-02T02:41:01.023Z,66.90
2022-12-02T02:43:29.046Z,66.73
2022-12-02T02:45:57.951Z,67.64
2022-12-02T02:48:29.728Z,66.64
2022-12-02T02:50:57.012Z,67.36
2022-12-02T02:53:25.778Z,66.85
2022-12-02T02:55:54.834Z,67.10
2022-12-02T02:58:24.933Z,66.90
2022-12-02T03:00:54.599Z,67.08
2022-12-02T03:03:27.131Z,67.05
2022-12-02T03:05:55.864Z,67.00
2022-12-02T03:08:23.455Z,67.80
2022-12-02T03:10:50.607Z,66.94
2022-12-02T03:13:17.368Z,66.92
2022-12-02T03:15:45.312Z,67.16
2022-12-02T03:18:12.480Z,67.64
2022-12-02T03:20:38.991Z,66.93
2022-12-02T03:23:05.868Z,67.38
2022-12-02T03:25:32.457Z,67.03
2022-12-02T03:27:58.936Z,67.82
2022-12-02T03:30:25.668Z,66.82
2022-12-02T03:32:53.908Z,66.94
2022-12-02T03:35:20.567Z,67.42
2022-12-02T03:37:47.167Z,67.13
2022-12-02T03:40:13.860Z,66.92
2022-12-02T03:42:40.500Z,66.94
2022-12-02T03:45:08.154Z,67.23
2022-12-02T03:47:34.955Z,66.89
2022-12-02T03:50:03.209Z,67.67
2022-12-02T03:52:29.753Z,67.79
2022-12-02T03:54:57.358Z,67.75
2022-12-02T03:57:24.416Z,67.33
2022-12-02T03:59:51.064Z,67.21
2022-12-02T04:02:17.729Z,67.32
2022-12-02T04:04:44.299Z,67.73
2022-12-02T04:07:12.218Z,67.04
2022-12-02T04:09:38.824Z,67.41
2022-12-02T04:12:05.777Z,67.45
2022-12-02T04:14:32.391Z,67.89
2022-12-02T04:17:00.638Z,67.82
2022-12-02T04:19:30.543Z,67.93
2022-12-02T04:21:57.086Z,67.20
2022-12-02T04:24:24.976Z,67.17
2022-12-02T04:26:51.699Z,67.61
2022-12-02T04:29:18.261Z,67.35
2022-12-02T04:31:44.877Z,67.10
2022-12-02T04:34:11.665Z,67.56
2022-12-02T04:36:38.173Z,67.37
2022-12-02T04:39:05.042Z,67.04
2022-12-02T04:41:33.192Z,67.61
2022-12-02T04:43:59.755Z,67.81
2022-12-02T04:46:26.279Z,67.79
2022-12-02T04:48:52.861Z,67.68
2022-12-02T04:51:19.374Z,67.78
2022-12-02T04:53:46.032Z,67.85
2022-12-02T04:56:12.674Z,67.65
2022-12-02T04:58:40.788Z,68.16
2022-12-02T05:01:07.448Z,68.08
2022-12-02T05:03:34.013Z,67.62
2022-12-02T05:06:00.728Z,68.27
2022-12-02T05:08:27.220Z,68.05
2022-12-02T05:10:53.720Z,68.13
2022-12-02T05:13:20.273Z,67.61
2022-12-02T05:15:48.256Z,68.01
2022-12-02T05:18:14.812Z,67.41
2022-12-02T05:20:41.419Z,67.65
2022-12-02T05:23:08.127Z,68.03
2022-12-02T05:25:34.608Z,67.76
2022-12-02T05:28:01.825Z,68.07
2022-12-02T05:30:28.477Z,68.05
2022-12-02T05:32:56.568Z,67.71
2022-12-02T05:35:23.606Z,67.82
2022-12-02T05:37:50.297Z,67.70
2022-12-02T05:40:16.813Z,67.87
2022-12-02T05:42:43.383Z,67.69
2022-12-02T05:45:18.633Z,67.87
2022-12-02T05:47:46.817Z,67.65
2022-12-02T05:50:15.138Z,67.66
2022-12-02T05:52:43.676Z,67.98
2022-12-02T05:55:13.034Z,67.35
2022-12-02T05:57:39.729Z,67.79
2022-12-02T06:00:12.278Z,67.66
2022-12-02T06:02:41.155Z,67.78
2022-12-02T06:05:15.976Z,67.72
2022-12-02T06:07:42.524Z,68.09
2022-12-02T06:10:16.184Z,67.65
2022-12-02T06:12:42.681Z,67.31
2022-12-02T06:15:10.875Z,67.72
2022-12-02T06:17:37.393Z,67.36
2022-12-02T06:20:05.283Z,67.52
2022-12-02T06:22:34.556Z,67.83
2022-12-02T06:25:02.044Z,67.36
2022-12-02T06:27:29.289Z,67.76
2022-12-02T06:29:56.680Z,67.58
2022-12-02T06:32:24.927Z,67.72
2022-12-02T06:34:52.389Z,67.32
2022-12-02T06:37:20.743Z,67.55
2022-12-02T06:40:19.936Z,67.99
2022-12-02T06:42:39.532Z,67.53
2022-12-02T06:45:07.986Z,67.57
2022-12-02T06:47:52.428Z,67.23
2022-12-02T06:50:27.384Z,67.82
2022-12-02T06:53:03.048Z,67.36
2022-12-02T06:55:33.376Z,68.11
2022-12-02T06:58:11.857Z,68.02
2022-12-02T07:00:38.867Z,68.22
2022-12-02T07:03:06.337Z,68.58
2022-12-02T07:05:32.989Z,68.49
2022-12-02T07:08:00.340Z,67.80
2022-12-02T07:10:30.106Z,68.32
2022-12-02T07:12:58.995Z,68.19
2022-12-02T07:15:26.926Z,68.28
2022-12-02T07:17:56.565Z,67.84
2022-12-02T07:20:29.441Z,67.76
2022-12-02T07:22:56.950Z,68.35
2022-12-02T07:25:36.096Z,68.17
2022-12-02T07:28:09.235Z,68.09
2022-12-02T07:30:37.222Z,67.41
2022-12-02T07:33:03.836Z,67.42
2022-12-02T07:35:30.330Z,67.43
2022-12-02T07:37:57.951Z,67.53
2022-12-02T07:40:24.768Z,68.32
2022-12-02T07:42:51.799Z,67.99
2022-12-02T07:45:20.173Z,68.40
2022-12-02T07:47:49.077Z,68.00
2022-12-02T07:50:16.426Z,68.02
2022-12-02T07:52:42.946Z,68.00
2022-12-02T07:55:09.803Z,67.71
2022-12-02T07:57:36.362Z,68.08
2022-12-02T08:00:04.199Z,67.86
2022-12-02T08:02:40.003Z,67.69
2022-12-02T08:05:07.027Z,68.31
2022-12-02T08:07:33.684Z,68.19
2022-12-02T08:10:00.288Z,68.15
2022-12-02T08:12:26.775Z,67.97
2022-12-02T08:14:53.826Z,68.12
2022-12-02T08:17:20.484Z,68.18
2022-12-02T08:19:48.477Z,67.84
2022-12-02T08:22:15.079Z,67.82
2022-12-02T08:24:41.654Z,67.80
2022-12-02T08:27:08.104Z,67.77
2022-12-02T08:29:34.912Z,67.80
2022-12-02T08:32:01.744Z,68.16
2022-12-02T08:34:28.256Z,68.15
2022-12-02T08:36:56.305Z,68.24
2022-12-02T08:39:22.884Z,68.05
2022-12-02T08:41:49.740Z,67.77
2022-12-02T08:44:16.308Z,68.08
2022-12-02T08:46:42.825Z,67.84
2022-12-02T08:49:09.714Z,67.07
2022-12-02T08:51:36.343Z,67.25
2022-12-02T08:54:04.230Z,67.30
2022-12-02T08:56:31.231Z,67.19
2022-12-02T08:58:57.702Z,67.45
2022-12-02T09:01:24.277Z,67.38
2022-12-02T09:03:50.835Z,67.56
2022-12-02T09:06:17.379Z,67.53
2022-12-02T09:08:44.007Z,68.04
2022-12-02T09:11:12.054Z,67.79
2022-12-02T09:13:38.641Z,67.73
2022-12-02T09:16:05.700Z,67.98
2022-12-02T09:18:32.256Z,67.74
2022-12-02T09:20:58.734Z,67.87
2022-12-02T09:23:25.261Z,67.30
2022-12-02T09:25:51.783Z,67.82
2022-12-02T09:28:22.080Z,67.42
2022-12-02T09:30:48.748Z,67.88
2022-12-02T09:33:15.296Z,67.76
2022-12-02T09:35:41.747Z,67.70
2022-12-02T09:38:08.373Z,67.68
2022-12-02T09:40:35.485Z,67.73
2022-12-02T09:43:02.841Z,67.47
2022-12-02T09:45:30.787Z,67.43
2022-12-02T09:47:57.624Z,67.03
2022-12-02T09:50:25.048Z,67.54
2022-12-02T09:52:51.913Z,67.33
2022-12-02T09:55:20.229Z,67.93
2022-12-02T09:57:47.201Z,67.28
2022-12-02T10:00:15.214Z,66.89
2022-12-02T10:02:44.595Z,67.30
2022-12-02T10:05:13.140Z,67.36
2022-12-02T10:07:39.810Z,66.89
2022-12-02T10:10:06.971Z,67.05
2022-12-02T10:12:34.082Z,67.35
2022-12-02T10:15:00.618Z,67.27
2022-12-02T10:17:27.130Z,67.30
2022-12-02T10:19:55.726Z,67.21
2022-12-02T10:22:22.561Z,67.14
2022-12-02T10:24:49.627Z,67.58
2022-12-02T10:27:23.429Z,67.22
2022-12-02T10:29:51.817Z,67.22
2022-12-02T10:32:20.691Z,67.00
2022-12-02T10:35:00.483Z,67.11
2022-12-02T10:37:29.007Z,67.47
2022-12-02T10:40:07.109Z,66.89
2022-12-02T10:42:33.637Z,66.60
2022-12-02T10:45:08.844Z,67.37
2022-12-02T10:47:35.439Z,67.37
2022-12-02T10:50:02.087Z,66.77
2022-12-02T10:52:33.137Z,67.41
2022-12-02T10:55:00.083Z,67.06
2022-12-02T10:57:28.573Z,67.35
2022-12-02T10:59:56.280Z,66.93
2022-12-02T11:02:25.267Z,67.06
2022-12-02T11:04:52.622Z,67.19
2022-12-02T11:07:20.970Z,66.76
2022-12-02T11:09:53.223Z,66.53
2022-12-02T11:12:33.011Z,66.02
2022-12-02T11:14:59.660Z,66.10
2022-12-02T11:17:45.675Z,66.65
2022-12-02T11:20:30.163Z,66.61
2022-12-02T11:23:14.590Z,66.67
2022-12-02T11:25:53.456Z,66.29
2022-12-02T11:28:41.017Z,66.61
2022-12-02T11:31:24.227Z,66.10
2022-12-02T11:34:05.675Z,65.58
2022-12-02T11:36:34.219Z,65.84
2022-12-02T11:39:02.094Z,65.88
2022-12-02T11:41:30.513Z,66.25
2022-12-02T11:44:18.110Z,66.13
2022-12-02T11:46:46.702Z,65.79
2022-12-02T11:49:21.529Z,65.59
2022-12-02T11:51:48.053Z,66.05
2022-12-02T11:54:16.204Z,66.10
2022-12-02T11:56:45.434Z,66.28
2022-12-02T11:59:23.420Z,65.51
2022-12-02T12:01:50.488Z,65.75
2022-12-02T12:04:24.367Z,66.04
2022-12-02T12:06:55.408Z,66.10
2022-12-02T12:09:22.374Z,66.05
2022-12-02T12:12:03.797Z,65.88
2022-12-02T12:14:31.669Z,65.42
2022-12-02T12:17:13.076Z,66.02
2022-12-02T12:19:39.644Z,65.88
2022-12-02T12:22:23.422Z,65.59
2022-12-02T12:24:50.176Z,65.95
2022-12-02T12:27:33.575Z,65.61
2022-12-02T12:30:01.518Z,65.91
2022-12-02T12:32:28.045Z,65.95
2022-12-02T12:34:54.881Z,65.88
2022-12-02T12:37:21.394Z,65.16
2022-12-02T12:39:47.888Z,65.23
2022-12-02T12:42:14.389Z,65.20
2022-12-02T12:44:40.861Z,65.82
2022-12-02T12:47:08.841Z,65.86
2022-12-02T12:49:35.460Z,65.81
2022-12-02T12:52:02.079Z,66.14
2022-12-02T12:54:28.612Z,66.11
2022-12-02T12:56:55.109Z,66.08
2022-12-02T12:59:21.572Z,65.66
2022-12-02T13:01:48.431Z,65.90
2022-12-02T13:04:16.981Z,66.10
2022-12-02T13:06:43.707Z,65.69
2022-12-02T13:09:10.639Z,65.21
2022-12-02T13:11:37.241Z,65.37
2022-12-02T13:14:03.855Z,65.60
2022-12-02T13:16:30.781Z,65.33
2022-12-02T13:18:57.339Z,65.86
2022-12-02T13:21:25.207Z,65.32
2022-12-02T13:23:51.820Z,65.38
2022-12-02T13:26:18.315Z,66.02
2022-12-02T13:28:44.878Z,65.83
2022-12-02T13:31:11.433Z,65.94
2022-12-02T13:33:38.089Z,66.20
2022-12-02T13:36:04.805Z,66.21
2022-12-02T13:38:32.628Z,65.65
2022-12-02T13:40:59.153Z,65.66
2022-12-02T13:43:25.646Z,65.65
2022-12-02T13:45:52.230Z,65.76
2022-12-02T13:48:18.819Z,65.57
2022-12-02T13:50:45.315Z,65.43
2022-12-02T13:53:11.841Z,65.32
2022-12-02T13:55:39.935Z,65.44
2022-12-02T13:58:06.478Z,65.09
2022-12-02T14:00:33.063Z,65.95
2022-12-02T14:02:59.574Z,66.01
2022-12-02T14:05:26.131Z,65.70
2022-12-02T14:07:52.844Z,65.97
2022-12-02T14:10:19.566Z,66.43
2022-12-02T14:12:47.476Z,66.58
2022-12-02T14:15:14.008Z,66.45
2022-12-02T14:17:40.491Z,66.21
2022-12-02T14:20:07.677Z,65.85
2022-12-02T14:22:34.189Z,65.73
2022-12-02T14:25:00.756Z,66.04
2022-12-02T14:27:27.241Z,65.97
2022-12-02T14:29:55.096Z,65.84
2022-12-02T14:32:21.671Z,66.24
2022-12-02T14:34:48.360Z,66.02
2022-12-02T14:37:15.557Z,66.39
2022-12-02T14:39:42.464Z,66.20
2022-12-02T14:42:09.139Z,66.42
2022-12-02T14:44:35.617Z,65.80
2022-12-02T14:47:03.539Z,66.05
2022-12-02T14:49:45.478Z,66.14
2022-12-02T14:52:11.957Z,66.26
2022-12-02T14:54:38.608Z,66.85
2022-12-02T14:57:05.136Z,66.71
2022-12-02T14:59:31.778Z,67.16
2022-12-02T15:01:58.467Z,67.15
2022-12-02T15:04:28.751Z,66.67
2022-12-02T15:06:55.829Z,66.58
2022-12-02T15:09:22.311Z,66.60
2022-12-02T15:11:48.862Z,66.57
2022-12-02T15:14:15.334Z,66.77
2022-12-02T15:16:42.039Z,66.66
2022-12-02T15:19:08.616Z,66.38
2022-12-02T15:21:36.719Z,66.53
2022-12-02T15:24:03.299Z,66.56
2022-12-02T15:26:29.792Z,66.81
2022-12-02T15:28:56.290Z,66.92
2022-12-02T15:31:22.858Z,67.34
2022-12-02T15:33:49.355Z,66.77
2022-12-02T15:36:15.898Z,67.24
2022-12-02T15:38:44.131Z,66.82
2022-12-02T15:41:10.660Z,67.40
2022-12-02T15:43:37.149Z,67.42
2022-12-02T15:46:03.674Z,67.98
2022-12-02T15:48:30.193Z,67.94
2022-12-02T15:50:56.661Z,68.02
2022-12-02T15:53:23.237Z,68.29
2022-12-02T15:55:51.888Z,67.46
2022-12-02T15:58:18.416Z,67.78
2022-12-02T16:00:44.958Z,67.44
2022-12-02T16:03:11.529Z,67.15
2022-12-02T16:05:38.055Z,67.36
2022-12-02T16:08:04.944Z,67.67
2022-12-02T16:10:31.795Z,67.64
2022-12-02T16:12:59.896Z,67.18
2022-12-02T16:15:26.394Z,67.62
2022-12-02T16:17:52.886Z,67.71
2022-12-02T16:20:19.382Z,67.90
2022-12-02T16:22:45.898Z,67.70
2022-12-02T16:25:12.419Z,67.71
2022-12-02T16:27:38.972Z,67.76
2022-12-02T16:30:07.906Z,67.55
2022-12-02T16:32:34.424Z,67.94
2022-12-02T16:35:00.961Z,68.04
2022-12-02T16:37:27.477Z,67.52
2022-12-02T16:39:53.969Z,67.53
2022-12-02T16:42:20.501Z,67.70
2022-12-02T16:44:51.951Z,67.75
2022-12-02T16:47:23.009Z,67.31
2022-12-02T16:49:49.757Z,67.80
2022-12-02T16:52:16.260Z,67.67
2022-12-02T16:54:42.779Z,67.56
2022-12-02T16:57:09.293Z,67.88
2022-12-02T16:59:35.775Z,67.30
2022-12-02T17:02:02.307Z,67.93
2022-12-02T17:04:30.462Z,67.76
2022-12-02T17:06:56.909Z,67.54
2022-12-02T17:09:23.408Z,68.14
2022-12-02T17:11:49.881Z,67.66
2022-12-02T17:14:16.398Z,68.06
2022-12-02T17:16:43.104Z,67.55
2022-12-02T17:19:09.632Z,67.83
2022-12-02T17:21:37.541Z,67.82
2022-12-02T17:24:05.979Z,67.57
2022-12-02T17:26:32.471Z,68.17
2022-12-02T17:28:58.950Z,67.55
2022-12-02T17:31:25.700Z,67.94
2022-12-02T17:33:52.233Z,67.32
2022-12-02T17:36:18.715Z,67.28
2022-12-02T17:38:56.819Z,66.94
2022-12-02T17:41:24.590Z,67.18
2022-12-02T17:43:51.197Z,67.46
2022-12-02T17:46:18.101Z,67.51
2022-12-02T17:48:44.779Z,67.14
2022-12-02T17:51:11.631Z,67.37
2022-12-02T17:53:38.508Z,67.32
2022-12-02T17:56:07.305Z,67.56
2022-12-02T17:58:33.839Z,67.48
2022-12-02T18:01:03.572Z,67.04
2022-12-02T18:03:32.865Z,67.43
2022-12-02T18:05:59.365Z,67.84
2022-12-02T18:08:25.843Z,67.92
2022-12-02T18:10:52.354Z,68.25
2022-12-02T18:13:20.247Z,68.06
2022-12-02T18:15:46.933Z,68.11
2022-12-02T18:18:13.476Z,67.67
2022-12-02T18:20:40.104Z,68.39
2022-12-02T18:23:06.625Z,68.36
2022-12-02T18:25:33.154Z,67.85
2022-12-02T18:27:59.766Z,68.10
2022-12-02T18:30:27.698Z,67.93
2022-12-02T18:32:54.245Z,67.98
2022-12-02T18:35:20.818Z,67.90
2022-12-02T18:37:47.480Z,68.10
2022-12-02T18:40:17.988Z,67.89
2022-12-02T18:42:45.003Z,67.87
2022-12-02T18:45:12.487Z,68.06
2022-12-02T18:47:40.399Z,68.10
2022-12-02T18:50:07.580Z,67.89
2022-12-02T18:52:34.082Z,67.78
2022-12-02T18:55:00.604Z,68.25
2022-12-02T18:57:27.127Z,67.74
2022-12-02T18:59:53.711Z,67.41
2022-12-02T19:02:20.366Z,67.85
2022-12-02T19:04:51.568Z,67.59
2022-12-02T19:07:18.705Z,68.29
2022-12-02T19:09:48.785Z,67.74
2022-12-02T19:12:19.730Z,67.79
2022-12-02T19:14:46.241Z,67.80
2022-12-02T19:17:12.972Z,68.20
2022-12-02T19:19:39.613Z,67.90
2022-12-02T19:22:07.485Z,67.72
2022-12-02T19:24:33.987Z,68.01
2022-12-02T19:27:00.963Z,67.71
2022-12-02T19:29:27.459Z,67.89
2022-12-02T19:31:53.966Z,67.46
2022-12-02T19:34:20.594Z,67.49
2022-12-02T19:36:47.090Z,67.86
2022-12-02T19:39:15.497Z,67.17
2022-12-02T19:41:42.366Z,67.67
2022-12-02T19:44:09.165Z,67.53
2022-12-02T19:46:35.733Z,67.00
2022-12-02T19:49:02.458Z,67.81
2022-12-02T19:51:29.028Z,67.69
2022-12-02T19:53:55.587Z,68.17
2022-12-02T19:56:23.444Z,68.41
2022-12-02T19:58:49.947Z,68.24
2022-12-02T20:01:16.532Z,67.82
2022-12-02T20:03:43.176Z,67.89
2022-12-02T20:06:09.706Z,67.98
2022-12-02T20:08:36.218Z,68.15
2022-12-02T20:11:02.732Z,68.58
2022-12-02T20:13:30.605Z,68.46
2022-12-02T20:15:58.805Z,68.19
2022-12-02T20:18:25.639Z,68.58
2022-12-02T20:20:52.112Z,68.00
2022-12-02T20:23:18.700Z,68.39
2022-12-02T20:25:45.291Z,68.65
2022-12-02T20:28:11.783Z,68.43
2022-12-02T20:30:39.850Z,68.24
2022-12-02T20:33:06.424Z,68.88
2022-12-02T20:35:33.131Z,68.38
2022-12-02T20:38:01.612Z,68.69
2022-12-02T20:40:28.142Z,68.49
2022-12-02T20:42:54.640Z,68.45
2022-12-02T20:45:22.112Z,69.17
2022-12-02T20:47:49.983Z,69.17
2022-12-02T20:50:16.479Z,68.47
2022-12-02T20:52:45.868Z,68.51
2022-12-02T20:55:16.307Z,68.68
2022-12-02T20:57:42.830Z,69.00
2022-12-02T21:00:11.199Z,68.58
2022-12-02T21:02:37.883Z,68.52
2022-12-02T21:05:06.417Z,68.83
2022-12-02T21:07:32.980Z,68.70
2022-12-02T21:09:59.495Z,69.12
2022-12-02T21:12:26.108Z,69.21
2022-12-02T21:14:53.334Z,68.70
2022-12-02T21:17:20.071Z,68.46
2022-12-02T21:19:46.546Z,68.59
2022-12-02T21:22:14.643Z,68.66
2022-12-02T21:24:41.299Z,68.80
2022-12-02T21:27:07.827Z,68.33
2022-12-02T21:29:34.316Z,68.42
2022-12-02T21:32:01.005Z,68.14
2022-12-02T21:34:27.579Z,68.79
2022-12-02T21:36:54.099Z,68.33
2022-12-02T21:39:22.268Z,68.54
2022-12-02T21:41:49.027Z,68.57
2022-12-02T21:44:15.806Z,68.62
2022-12-02T21:46:44.039Z,68.27
2022-12-02T21:49:10.862Z,68.65
2022-12-02T21:51:37.377Z,68.30
2022-12-02T21:54:04.041Z,68.65
2022-12-02T21:56:36.364Z,68.97
2022-12-02T21:59:03.514Z,68.35
2022-12-02T22:01:39.461Z,68.02
2022-12-02T22:04:06.751Z,67.67
2022-12-02T22:06:33.225Z,68.02
2022-12-02T22:08:59.709Z,67.96
2022-12-02T22:11:26.296Z,68.10
2022-12-02T22:13:54.150Z,68.49
2022-12-02T22:16:20.700Z,68.95
2022-12-02T22:18:47.264Z,68.90
2022-12-02T22:21:13.757Z,68.29
2022-12-02T22:23:40.398Z,69.05
2022-12-02T22:26:07.049Z,68.89
2022-12-02T22:28:33.481Z,68.96
2022-12-02T22:31:01.405Z,69.00
2022-12-02T22:33:32.960Z,69.34
2022-12-02T22:36:00.387Z,69.56
2022-12-02T22:38:26.863Z,69.49
2022-12-02T22:40:53.324Z,69.61
2022-12-02T22:43:19.914Z,69.25
2022-12-02T22:45:46.446Z,69.62
2022-12-02T22:48:14.340Z,69.83
2022-12-02T22:50:40.880Z,69.21
2022-12-02T22:53:07.422Z,69.36
2022-12-02T22:55:33.923Z,69.00
2022-12-02T22:58:00.522Z,69.58
2022-12-02T23:00:27.027Z,69.51
2022-12-02T23:02:53.624Z,69.13
2022-12-02T23:05:21.689Z,69.76
2022-12-02T23:07:48.207Z,69.78
2022-12-02T23:10:14.785Z,70.37
2022-12-02T23:12:41.339Z,70.00
2022-12-02T23:15:35.947Z,70.16
2022-12-02T23:17:55.161Z,70.26
2022-12-02T23:20:23.045Z,70.16
2022-12-02T23:22:49.662Z,69.51
2022-12-02T23:25:16.888Z,69.83
2022-12-02T23:27:43.968Z,69.58
2022-12-02T23:30:11.779Z,69.53
2022-12-02T23:32:38.479Z,69.72
2022-12-02T23:35:05.625Z,70.14
2022-12-02T23:37:33.470Z,70.17
2022-12-02T23:39:59.943Z,70.43
2022-12-02T23:42:26.483Z,70.70
2022-12-02T23:44:53.289Z,70.63
2022-12-02T23:47:19.908Z,70.29
2022-12-02T23:49:46.389Z,70.35
2022-12-02T23:52:12.880Z,70.06
2022-12-02T23:54:40.898Z,70.62
2022-12-02T23:57:07.504Z,70.92
2022-12-02T23:59:33.983Z,69.77
